createdAt,value
2019-06-07T00:02:26.730Z,5.83
2019-06-07T00:04:54.234Z,6.30
2019-06-07T00:07:22.062Z,6.37
2019-06-07T00:09:49.629Z,6.60
2019-06-07T00:12:21.084Z,6.13
2019-06-07T00:14:46.450Z,6.07
2019-06-07T00:17:15.930Z,6.40
2019-06-07T00:19:43.338Z,6.87
2019-06-07T00:22:19.583Z,7.03
2019-06-07T00:24:40.178Z,6.30
2019-06-07T00:27:08.430Z,6.83
2019-06-07T00:29:36.586Z,6.43
2019-06-07T00:32:04.133Z,6.93
2019-06-07T00:34:31.656Z,6.90
2019-06-07T00:36:59.096Z,6.67
2019-06-07T00:39:26.559Z,7.40
2019-06-07T00:41:54.087Z,7.63
2019-06-07T00:44:23.198Z,7.23
2019-06-07T00:46:50.875Z,7.33
2019-06-07T00:49:32.270Z,6.90
2019-06-07T00:51:51.346Z,7.70
2019-06-07T00:54:19.562Z,7.50
2019-06-07T00:56:46.322Z,7.23
2019-06-07T00:59:16.242Z,7.00
2019-06-07T01:01:43.205Z,6.90
2019-06-07T01:04:10.686Z,6.73
2019-06-07T01:06:39.127Z,7.73
2019-06-07T01:09:07.650Z,7.30
2019-06-07T01:11:35.231Z,8.03
2019-06-07T01:14:02.982Z,6.97
2019-06-07T01:16:55.749Z,7.33
2019-06-07T01:19:00.878Z,8.20
2019-06-07T01:21:29.901Z,7.83
2019-06-07T01:24:11.514Z,8.00
2019-06-07T01:26:29.841Z,7.70
2019-06-07T01:28:56.351Z,7.73
2019-06-07T01:31:27.597Z,7.50
2019-06-07T01:33:53.172Z,7.53
2019-06-07T01:36:22.345Z,7.83
2019-06-07T01:38:50.025Z,8.50
2019-06-07T01:41:21.548Z,7.70
2019-06-07T01:43:46.936Z,7.93
2019-06-07T01:46:14.473Z,7.83
2019-06-07T01:48:49.383Z,7.97
2019-06-07T01:51:11.349Z,8.20
2019-06-07T01:53:38.874Z,7.97
2019-06-07T01:56:06.353Z,8.00
2019-06-07T01:58:33.918Z,8.03
2019-06-07T02:01:01.372Z,7.90
2019-06-07T02:03:32.165Z,8.03
2019-06-07T02:05:58.242Z,7.90
2019-06-07T02:08:27.282Z,7.67
2019-06-07T02:10:55.063Z,8.63
2019-06-07T02:13:23.728Z,8.47
2019-06-07T02:15:51.949Z,7.77
2019-06-07T02:18:21.776Z,7.83
2019-06-07T02:20:48.724Z,7.80
2019-06-07T02:23:16.236Z,7.97
2019-06-07T02:25:50.290Z,8.47
2019-06-07T02:28:27.073Z,8.67
2019-06-07T02:30:50.545Z,7.83
2019-06-07T02:33:11.837Z,8.00
2019-06-07T02:35:40.943Z,8.13
2019-06-07T02:38:08.745Z,8.23
2019-06-07T02:40:37.486Z,7.70
2019-06-07T02:43:05.458Z,8.03
2019-06-07T02:45:42.599Z,8.17
2019-06-07T02:48:02.361Z,7.70
2019-06-07T02:50:35.436Z,8.00
2019-06-07T02:52:59.271Z,8.47
2019-06-07T02:55:29.588Z,8.17
2019-06-07T02:57:56.133Z,7.93
2019-06-07T03:01:04.033Z,7.43
2019-06-07T03:03:14.416Z,7.33
2019-06-07T03:05:43.545Z,7.93
2019-06-07T03:08:16.687Z,7.27
2019-06-07T03:10:46.600Z,7.20
2019-06-07T03:13:16.931Z,7.70
2019-06-07T03:15:50.031Z,7.07
2019-06-07T03:18:36.797Z,7.47
2019-06-07T03:21:06.496Z,7.13
2019-06-07T03:23:36.063Z,7.03
2019-06-07T03:26:04.830Z,7.57
2019-06-07T03:28:36.101Z,7.40
2019-06-07T03:31:03.277Z,7.60
2019-06-07T03:33:33.451Z,7.17
2019-06-07T03:36:13.007Z,7.37
2019-06-07T03:38:31.974Z,7.97
2019-06-07T03:40:58.977Z,8.20
2019-06-07T03:43:27.347Z,8.23
2019-06-07T03:45:55.023Z,7.70
2019-06-07T03:48:22.540Z,8.43
2019-06-07T03:51:04.265Z,8.00
2019-06-07T03:53:19.413Z,8.53
2019-06-07T03:55:46.922Z,7.63
2019-06-07T03:58:31.522Z,7.63
2019-06-07T04:00:46.859Z,7.87
2019-06-07T04:03:33.019Z,7.33
2019-06-07T04:05:43.867Z,7.47
2019-06-07T04:08:11.423Z,7.87
2019-06-07T04:10:55.954Z,7.77
2019-06-07T04:13:08.317Z,7.40
2019-06-07T04:15:38.316Z,7.77
2019-06-07T04:18:05.179Z,7.80
2019-06-07T04:20:34.585Z,7.17
2019-06-07T04:23:02.099Z,7.53
2019-06-07T04:25:31.758Z,8.03
2019-06-07T04:27:58.945Z,7.77
2019-06-07T04:30:55.090Z,8.17
2019-06-07T04:33:22.608Z,8.03
2019-06-07T04:35:50.846Z,8.00
2019-06-07T04:38:18.361Z,8.43
2019-06-07T04:40:47.195Z,7.60
2019-06-07T04:43:14.799Z,8.33
2019-06-07T04:45:50.695Z,7.90
2019-06-07T04:48:11.693Z,8.10
2019-06-07T04:50:43.964Z,7.90
2019-06-07T04:53:10.720Z,8.10
2019-06-07T04:55:40.310Z,8.50
2019-06-07T04:58:10.469Z,7.83
2019-06-07T05:01:01.550Z,7.90
2019-06-07T05:03:07.351Z,8.07
2019-06-07T05:05:37.441Z,8.10
2019-06-07T05:08:07.594Z,7.50
2019-06-07T05:10:35.169Z,7.60
2019-06-07T05:13:03.055Z,8.57
2019-06-07T05:15:32.055Z,7.73
2019-06-07T05:17:59.678Z,7.27
2019-06-07T05:20:27.205Z,7.60
2019-06-07T05:22:55.836Z,7.33
2019-06-07T05:25:23.288Z,7.00
2019-06-07T05:27:50.716Z,7.40
2019-06-07T05:33:04.943Z,7.33
2019-06-07T05:35:33.088Z,7.60
2019-06-07T05:38:03.655Z,6.97
2019-06-07T05:40:34.884Z,7.40
2019-06-07T05:43:03.234Z,7.10
2019-06-07T05:45:35.794Z,7.17
2019-06-07T05:48:03.767Z,7.37
2019-06-07T05:50:42.350Z,7.07
2019-06-07T05:53:00.605Z,6.77
2019-06-07T05:55:28.114Z,6.73
2019-06-07T05:57:55.658Z,6.70
2019-06-07T06:00:23.176Z,6.90
2019-06-07T06:03:04.284Z,7.00
2019-06-07T06:05:33.422Z,6.13
2019-06-07T06:07:50.907Z,6.27
2019-06-07T06:10:18.489Z,6.40
2019-06-07T06:12:51.511Z,6.17
2019-06-07T06:15:15.520Z,6.63
2019-06-07T06:17:46.166Z,6.37
2019-06-07T06:20:12.624Z,6.10
2019-06-07T06:22:44.060Z,6.37
2019-06-07T06:30:15.120Z,6.00
2019-06-07T06:32:50.980Z,5.83
2019-06-07T06:35:12.311Z,5.83
2019-06-07T06:37:42.529Z,6.17
2019-06-07T06:40:09.949Z,6.33
2019-06-07T06:42:37.413Z,6.07
2019-06-07T06:45:06.123Z,6.00
2019-06-07T06:47:33.927Z,5.77
2019-06-07T06:50:02.247Z,5.80
2019-06-07T06:52:29.810Z,5.40
2019-06-07T06:55:00.753Z,5.40
2019-06-07T06:57:27.843Z,5.77
2019-06-07T06:59:58.076Z,5.80
2019-06-07T07:02:25.730Z,5.33
2019-06-07T07:04:54.045Z,6.13
2019-06-07T07:07:22.626Z,5.63
2019-06-07T07:09:54.954Z,5.20
2019-06-07T07:12:19.612Z,5.20
2019-06-07T07:14:49.584Z,5.20
2019-06-07T07:17:16.520Z,5.43
2019-06-07T07:19:47.945Z,5.37
2019-06-07T07:22:14.894Z,5.00
2019-06-07T07:24:42.494Z,4.77
2019-06-07T07:27:10.012Z,5.17
2019-06-07T07:29:37.577Z,5.27
2019-06-07T07:32:05.093Z,4.83
2019-06-07T07:34:36.894Z,4.63
2019-06-07T07:37:03.413Z,5.10
2019-06-07T07:39:32.830Z,5.27
2019-06-07T07:42:18.048Z,4.70
2019-06-07T07:44:33.335Z,4.63
2019-06-07T07:47:03.426Z,4.50
2019-06-07T07:49:33.744Z,4.50
2019-06-07T07:52:08.697Z,4.67
2019-06-07T07:54:36.188Z,4.57
2019-06-07T07:57:10.478Z,4.20
2019-06-07T07:59:44.182Z,4.50
2019-06-07T08:02:04.717Z,4.13
2019-06-07T08:05:12.750Z,4.47
2019-06-07T08:07:03.295Z,4.60
2019-06-07T08:09:30.832Z,4.37
2019-06-07T08:12:01.921Z,4.47
2019-06-07T08:14:27.665Z,4.67
2019-06-07T08:16:57.871Z,4.60
2019-06-07T08:19:24.571Z,4.40
2019-06-07T08:21:56.043Z,4.17
2019-06-07T08:24:23.662Z,4.13
2019-06-07T08:27:12.321Z,4.03
2019-06-07T08:29:21.865Z,4.20
2019-06-07T08:31:51.862Z,3.70
2019-06-07T08:34:18.776Z,3.97
2019-06-07T08:36:48.037Z,3.97
2019-06-07T08:39:16.761Z,3.70
2019-06-07T08:41:53.710Z,3.20
2019-06-07T08:44:23.184Z,3.10
2019-06-07T08:46:45.133Z,3.00
2019-06-07T08:49:15.108Z,3.00
2019-06-07T08:51:42.655Z,3.50
2019-06-07T08:54:22.434Z,3.40
2019-06-07T08:56:41.427Z,3.40
2019-06-07T08:59:11.431Z,3.03
2019-06-07T09:01:38.318Z,2.97
2019-06-07T09:04:10.522Z,3.57
2019-06-07T09:09:06.283Z,3.03
2019-06-07T09:11:33.839Z,3.03
2019-06-07T09:14:05.344Z,3.53
2019-06-07T09:16:30.777Z,3.00
2019-06-07T09:18:59.184Z,3.00
2019-06-07T09:21:27.699Z,3.07
2019-06-07T09:23:57.203Z,2.67
2019-06-07T09:26:24.664Z,2.90
2019-06-07T09:28:52.271Z,2.60
2019-06-07T09:31:19.778Z,2.70
2019-06-07T09:33:47.703Z,2.50
2019-06-07T09:36:15.283Z,2.40
2019-06-07T09:38:43.954Z,2.63
2019-06-07T09:41:11.512Z,2.90
2019-06-07T09:44:04.784Z,2.93
2019-06-07T09:46:13.985Z,2.57
2019-06-07T09:51:18.560Z,2.80
2019-06-07T09:53:36.559Z,2.87
2019-06-07T09:56:08.680Z,2.60
2019-06-07T10:01:07.416Z,2.57
2019-06-07T10:03:32.767Z,2.80
2019-06-07T10:06:03.436Z,2.57
2019-06-07T10:10:58.924Z,2.60
2019-06-07T10:13:26.656Z,2.40
2019-06-07T10:15:54.221Z,2.13
2019-06-07T10:18:21.795Z,2.53
2019-06-07T10:20:49.659Z,2.63
2019-06-07T10:23:19.251Z,2.20
2019-06-07T10:25:46.773Z,2.40
2019-06-07T10:28:14.313Z,2.30
2019-06-07T10:30:41.840Z,2.10
2019-06-07T10:33:10.497Z,2.30
2019-06-07T10:35:38.121Z,2.00
2019-06-07T10:38:06.627Z,2.40
2019-06-07T10:40:34.333Z,2.03
2019-06-07T10:43:02.969Z,2.17
2019-06-07T10:45:30.585Z,1.87
2019-06-07T10:47:58.124Z,1.90
2019-06-07T10:50:25.724Z,1.97
2019-06-07T10:52:53.137Z,1.90
2019-06-07T10:55:20.661Z,1.90
2019-06-07T10:57:48.199Z,1.90
2019-06-07T11:00:17.634Z,1.90
2019-06-07T11:02:45.068Z,1.70
2019-06-07T11:05:14.444Z,2.00
2019-06-07T11:07:42.293Z,1.60
2019-06-07T11:10:16.683Z,1.87
2019-06-07T11:12:39.261Z,1.73
2019-06-07T11:15:08.658Z,1.57
2019-06-07T11:17:36.481Z,1.30
2019-06-07T11:20:08.190Z,1.40
2019-06-07T11:22:36.014Z,1.37
2019-06-07T11:25:04.999Z,1.30
2019-06-07T11:27:33.925Z,1.60
2019-06-07T11:30:01.443Z,1.30
2019-06-07T11:32:29.056Z,1.60
2019-06-07T11:34:56.599Z,1.60
2019-06-07T11:37:24.156Z,1.30
2019-06-07T11:39:51.688Z,1.37
2019-06-07T11:42:20.062Z,1.50
2019-06-07T11:44:56.609Z,1.63
2019-06-07T11:47:18.447Z,1.40
2019-06-07T11:49:46.162Z,1.33
2019-06-07T11:52:15.775Z,1.77
2019-06-07T11:54:43.487Z,1.50
2019-06-07T11:57:12.997Z,1.60
2019-06-07T11:59:40.616Z,1.40
2019-06-07T12:02:09.129Z,1.40
2019-06-07T12:04:36.780Z,1.50
2019-06-07T12:07:04.372Z,1.60
2019-06-07T12:09:33.260Z,1.73
2019-06-07T12:12:00.798Z,1.77
2019-06-07T12:14:28.345Z,1.53
2019-06-07T12:16:55.895Z,1.33
2019-06-07T12:19:23.456Z,1.63
2019-06-07T12:21:51.055Z,1.80
2019-06-07T12:24:19.926Z,1.60
2019-06-07T12:26:47.976Z,1.53
2019-06-07T12:29:17.077Z,1.67
2019-06-07T12:31:44.745Z,1.70
2019-06-07T12:34:13.255Z,1.50
2019-06-07T12:36:42.099Z,1.70
2019-06-07T12:39:09.674Z,1.57
2019-06-07T12:41:37.262Z,1.60
2019-06-07T12:44:05.103Z,1.50
2019-06-07T12:46:32.682Z,1.63
2019-06-07T12:49:00.236Z,1.70
2019-06-07T12:51:27.820Z,1.63
2019-06-07T12:53:55.340Z,1.40
2019-06-07T12:56:24.240Z,1.30
2019-06-07T12:58:51.890Z,1.50
2019-06-07T13:01:20.839Z,1.40
2019-06-07T13:03:48.827Z,1.50
2019-06-07T13:06:17.684Z,1.47
2019-06-07T13:08:45.490Z,1.57
2019-06-07T13:11:17.677Z,1.40
2019-06-07T13:13:42.341Z,1.30
2019-06-07T13:16:11.946Z,1.43
2019-06-07T13:18:39.425Z,1.77
2019-06-07T13:21:06.965Z,1.43
2019-06-07T13:23:34.534Z,1.50
2019-06-07T13:26:02.223Z,1.50
2019-06-07T13:28:29.742Z,1.77
2019-06-07T13:30:57.266Z,1.93
2019-06-07T13:33:25.822Z,1.80
2019-06-07T13:35:54.062Z,1.73
2019-06-07T13:38:25.299Z,1.70
2019-06-07T13:40:56.359Z,1.80
2019-06-07T13:43:23.806Z,1.33
2019-06-07T13:45:51.397Z,2.00
2019-06-07T13:48:19.221Z,1.67
2019-06-07T13:50:47.126Z,1.73
2019-06-07T13:53:14.654Z,1.23
2019-06-07T13:55:42.211Z,1.47
2019-06-07T13:58:09.745Z,1.50
2019-06-07T14:00:37.248Z,1.20
2019-06-07T14:03:04.710Z,1.50
2019-06-07T14:05:32.212Z,1.40
2019-06-07T14:07:59.825Z,1.20
2019-06-07T14:10:27.605Z,1.40
2019-06-07T14:12:55.065Z,1.20
2019-06-07T14:15:24.246Z,1.20
2019-06-07T14:17:52.056Z,1.20
2019-06-07T14:20:25.360Z,1.40
2019-06-07T14:22:53.958Z,1.30
2019-06-07T14:25:20.957Z,1.30
2019-06-07T14:27:48.655Z,1.30
2019-06-07T14:30:16.714Z,1.27
2019-06-07T14:32:44.284Z,1.13
2019-06-07T14:35:11.849Z,1.13
2019-06-07T14:37:39.447Z,1.10
2019-06-07T14:40:07.998Z,0.93
2019-06-07T14:42:35.553Z,1.00
2019-06-07T14:45:06.162Z,1.00
2019-06-07T14:47:35.268Z,0.93
2019-06-07T14:50:03.965Z,0.80
2019-06-07T14:52:33.442Z,0.83
2019-06-07T14:55:01.043Z,1.03
2019-06-07T14:57:31.074Z,0.90
2019-06-07T14:59:59.059Z,1.00
2019-06-07T15:02:28.837Z,1.07
2019-06-07T15:04:56.682Z,0.90
2019-06-07T15:07:24.360Z,0.93
2019-06-07T15:09:55.813Z,0.70
2019-06-07T15:12:25.453Z,0.90
2019-06-07T15:14:53.235Z,0.80
2019-06-07T15:17:21.102Z,0.90
2019-06-07T15:19:51.255Z,0.90
2019-06-07T15:22:18.822Z,0.93
2019-06-07T15:24:46.359Z,1.03
2019-06-07T15:27:13.936Z,0.80
2019-06-07T15:29:41.602Z,0.77
2019-06-07T15:32:09.182Z,1.00
2019-06-07T15:34:40.016Z,0.80
2019-06-07T15:37:07.838Z,1.00
2019-06-07T15:39:36.641Z,0.93
2019-06-07T15:42:04.485Z,0.90
2019-06-07T15:44:33.229Z,1.07
2019-06-07T15:47:00.940Z,1.97
2019-06-07T15:49:30.202Z,2.00
2019-06-07T15:52:02.679Z,1.30
2019-06-07T15:54:32.272Z,1.00
2019-06-07T15:57:03.155Z,1.60
2019-06-07T15:59:31.061Z,0.93
2019-06-07T16:01:58.549Z,1.20
2019-06-07T16:04:28.297Z,0.87
2019-06-07T16:06:56.370Z,0.83
2019-06-07T16:09:23.927Z,0.87
2019-06-07T16:11:51.846Z,0.97
2019-06-07T16:14:39.103Z,0.97
2019-06-07T16:17:07.633Z,1.00
2019-06-07T16:19:39.057Z,0.83
2019-06-07T16:22:04.500Z,0.80
2019-06-07T16:24:32.061Z,0.90
2019-06-07T16:27:00.799Z,0.80
2019-06-07T16:29:30.360Z,0.77
2019-06-07T16:31:59.081Z,0.80
2019-06-07T16:34:27.877Z,0.93
2019-06-07T16:36:55.448Z,0.70
2019-06-07T16:39:25.403Z,0.90
2019-06-07T16:41:53.629Z,0.90
2019-06-07T16:44:24.123Z,0.70
2019-06-07T16:46:51.673Z,0.90
2019-06-07T16:49:19.224Z,0.80
2019-06-07T16:51:46.788Z,0.90
2019-06-07T16:54:14.754Z,0.80
2019-06-07T16:56:51.889Z,0.87
2019-06-07T16:59:19.480Z,0.90
2019-06-07T17:01:46.984Z,0.93
2019-06-07T17:04:14.551Z,0.83
2019-06-07T17:06:42.139Z,0.80
2019-06-07T17:09:11.279Z,0.97
2019-06-07T17:11:40.323Z,0.67
2019-06-07T17:14:08.222Z,0.80
2019-06-07T17:16:35.852Z,0.70
2019-06-07T17:19:03.599Z,0.70
2019-06-07T17:21:31.218Z,1.00
2019-06-07T17:23:58.781Z,0.80
2019-06-07T17:26:26.435Z,0.90
2019-06-07T17:28:54.004Z,0.80
2019-06-07T17:31:21.563Z,0.80
2019-06-07T17:33:50.168Z,0.80
2019-06-07T17:36:18.958Z,1.00
2019-06-07T17:38:46.654Z,0.80
2019-06-07T17:41:14.192Z,0.97
2019-06-07T17:43:53.025Z,0.80
2019-06-07T17:46:12.489Z,0.90
2019-06-07T17:48:39.952Z,0.80
2019-06-07T17:51:07.707Z,1.00
2019-06-07T17:53:37.405Z,0.90
2019-06-07T17:56:04.986Z,0.70
2019-06-07T17:58:32.632Z,0.90
2019-06-07T18:01:00.616Z,0.90
2019-06-07T18:03:28.204Z,1.00
2019-06-07T18:05:57.075Z,0.80
2019-06-07T18:08:24.835Z,0.90
2019-06-07T18:10:52.463Z,1.10
2019-06-07T18:13:20.020Z,1.07
2019-06-07T18:15:51.738Z,1.00
2019-06-07T18:18:17.440Z,1.00
2019-06-07T18:20:47.228Z,0.70
2019-06-07T18:23:15.063Z,0.80
2019-06-07T18:25:46.440Z,0.93
2019-06-07T18:28:17.373Z,1.00
2019-06-07T18:30:46.472Z,0.80
2019-06-07T18:33:14.453Z,0.90
2019-06-07T18:35:42.057Z,0.90
2019-06-07T18:38:10.842Z,0.80
2019-06-07T18:40:39.079Z,0.70
2019-06-07T18:43:06.704Z,0.70
2019-06-07T18:45:34.222Z,1.10
2019-06-07T18:48:01.906Z,0.90
2019-06-07T18:50:29.737Z,0.97
2019-06-07T18:53:00.070Z,1.00
2019-06-07T18:55:28.089Z,1.33
2019-06-07T18:57:56.547Z,0.93
2019-06-07T19:00:25.296Z,0.80
2019-06-07T19:02:54.028Z,0.90
2019-06-07T19:05:21.837Z,0.90
2019-06-07T19:07:50.462Z,0.97
2019-06-07T19:10:19.469Z,1.00
2019-06-07T19:12:49.283Z,0.93
2019-06-07T19:15:17.828Z,0.90
2019-06-07T19:17:45.564Z,0.80
2019-06-07T19:20:13.898Z,0.90
2019-06-07T19:22:43.821Z,0.80
2019-06-07T19:25:13.526Z,1.20
2019-06-07T19:27:41.169Z,1.00
2019-06-07T19:30:11.617Z,1.20
2019-06-07T19:32:39.309Z,1.00
2019-06-07T19:35:07.571Z,0.87
2019-06-07T19:37:35.164Z,0.70
2019-06-07T19:40:03.252Z,1.00
2019-06-07T19:42:30.902Z,1.20
2019-06-07T19:45:16.871Z,0.90
2019-06-07T19:47:27.975Z,0.87
2019-06-07T19:49:56.617Z,0.87
2019-06-07T19:52:24.396Z,0.90
2019-06-07T19:54:53.627Z,1.03
2019-06-07T19:57:21.356Z,1.20
2019-06-07T19:59:49.132Z,1.00
2019-06-07T20:02:17.141Z,0.83
2019-06-07T20:04:44.842Z,1.03
2019-06-07T20:07:13.489Z,1.10
2019-06-07T20:09:44.706Z,1.00
2019-06-07T20:12:12.461Z,0.80
2019-06-07T20:14:47.548Z,1.10
2019-06-07T20:17:15.480Z,1.33
2019-06-07T20:19:43.120Z,1.10
2019-06-07T20:22:10.789Z,0.90
2019-06-07T20:24:38.385Z,1.00
2019-06-07T20:27:06.221Z,1.03
2019-06-07T20:29:33.867Z,0.97
2019-06-07T20:32:02.485Z,1.00
2019-06-07T20:34:30.170Z,0.93
2019-06-07T20:36:57.987Z,1.00
2019-06-07T20:39:25.610Z,1.07
2019-06-07T20:41:53.238Z,0.97
2019-06-07T20:44:20.881Z,1.13
2019-06-07T20:46:48.516Z,1.00
2019-06-07T20:49:16.140Z,1.07
2019-06-07T20:51:43.730Z,1.00
2019-06-07T20:54:11.339Z,1.07
2019-06-07T20:56:39.012Z,0.97
2019-06-07T20:59:06.877Z,0.80
2019-06-07T21:01:34.735Z,1.03
2019-06-07T21:04:03.123Z,0.93
2019-06-07T21:06:30.862Z,1.30
2019-06-07T21:08:59.435Z,1.00
2019-06-07T21:11:26.988Z,1.30
2019-06-07T21:13:55.686Z,0.80
2019-06-07T21:16:25.071Z,0.80
2019-06-07T21:18:52.675Z,0.70
2019-06-07T21:21:20.158Z,1.00
2019-06-07T21:23:47.747Z,0.90
2019-06-07T21:26:16.575Z,0.83
2019-06-07T21:28:44.237Z,0.77
2019-06-07T21:31:31.312Z,1.00
2019-06-07T21:33:58.869Z,0.80
2019-06-07T21:36:29.319Z,0.90
2019-06-07T21:38:57.021Z,0.90
2019-06-07T21:41:24.653Z,0.77
2019-06-07T21:43:52.289Z,0.83
2019-06-07T21:46:22.614Z,0.90
2019-06-07T21:48:50.230Z,0.90
2019-06-07T21:51:17.827Z,0.80
2019-06-07T21:53:47.075Z,0.77
2019-06-07T21:56:14.669Z,0.67
2019-06-07T21:58:42.256Z,0.90
2019-06-07T22:01:16.005Z,0.80
2019-06-07T22:03:43.733Z,0.83
2019-06-07T22:06:13.768Z,1.00
2019-06-07T22:08:41.693Z,1.10
2019-06-07T22:11:10.208Z,0.70
2019-06-07T22:13:38.350Z,1.50
2019-06-07T22:16:21.319Z,1.10
2019-06-07T22:18:35.750Z,1.10
2019-06-07T22:21:04.376Z,1.20
2019-06-07T22:23:32.061Z,0.90
2019-06-07T22:26:02.439Z,1.00
2019-06-07T22:28:30.001Z,1.23
2019-06-07T22:30:57.867Z,1.13
2019-06-07T22:33:25.524Z,1.00
2019-06-07T22:35:53.197Z,1.00
2019-06-07T22:38:20.873Z,1.27
2019-06-07T22:40:54.049Z,1.27
2019-06-07T22:43:21.663Z,1.03
2019-06-07T22:45:49.391Z,1.40
2019-06-07T22:48:20.427Z,1.03
2019-06-07T22:50:48.491Z,1.33
2019-06-07T22:53:16.099Z,1.33
2019-06-07T22:55:48.319Z,1.00
2019-06-07T22:58:16.233Z,1.33
2019-06-07T23:00:43.836Z,1.37
2019-06-07T23:03:12.567Z,1.13
2019-06-07T23:05:40.220Z,1.17
2019-06-07T23:08:08.788Z,1.30
2019-06-07T23:10:39.044Z,1.20
2019-06-07T23:13:06.551Z,1.43
2019-06-07T23:15:34.040Z,1.37
2019-06-07T23:18:01.557Z,1.13
2019-06-07T23:20:28.994Z,1.43
2019-06-07T23:22:56.822Z,1.33
2019-06-07T23:25:24.850Z,1.50
2019-06-07T23:27:52.437Z,1.17
2019-06-07T23:30:21.710Z,1.73
2019-06-07T23:32:50.419Z,1.20
2019-06-07T23:35:19.042Z,1.30
2019-06-07T23:37:46.814Z,1.40
2019-06-07T23:40:15.231Z,1.23
2019-06-07T23:42:42.926Z,1.17
2019-06-07T23:45:12.069Z,1.50
2019-06-07T23:47:40.066Z,1.30
2019-06-07T23:50:08.745Z,1.50
2019-06-07T23:52:36.364Z,1.60
2019-06-07T23:55:04.204Z,1.27
2019-06-07T23:57:31.692Z,1.53
2019-06-07T23:59:59.267Z,1.30
